Estación de Algarrobo Bajo INIA
Ultimos registro cada 15 minutos 91
| N° | Estación | Fecha / Hora | Temperatura | Humedad | Lluvia | Velocidad | Dirección | Radiación | Presion |
| 91 | Algarrobo Bajo INIA | 03-05-2026 22:30 | 11,2 | 83,4 | 0 | 1,2 | 330 | 0 | 0 |
| 90 | Algarrobo Bajo INIA | 03-05-2026 22:15 | 11,6 | 81,8 | 0 | 1,4 | 322 | 0 | 0 |
| 89 | Algarrobo Bajo INIA | 03-05-2026 22:00 | 12,3 | 80,3 | 0 | 1,4 | 320 | 0 | 0 |
| 88 | Algarrobo Bajo INIA | 03-05-2026 21:45 | 12,6 | 76,6 | 0 | 1,1 | 13 | 0 | 0 |
| 87 | Algarrobo Bajo INIA | 03-05-2026 21:30 | 12,6 | 77,8 | 0 | 1,5 | 358 | 0 | 0 |
| 86 | Algarrobo Bajo INIA | 03-05-2026 21:15 | 12,8 | 75,8 | 0 | 1,8 | 338 | 0 | 0 |
| 85 | Algarrobo Bajo INIA | 03-05-2026 21:00 | 12,9 | 74,6 | 0 | 2,3 | 326 | 0 | 0 |
| 84 | Algarrobo Bajo INIA | 03-05-2026 20:45 | 13,3 | 72 | 0 | 1,1 | 312 | 0 | 0 |
| 83 | Algarrobo Bajo INIA | 03-05-2026 20:30 | 13,9 | 62,6 | 0 | 1,4 | 313 | 0 | 0 |
| 82 | Algarrobo Bajo INIA | 03-05-2026 20:15 | 14 | 66,8 | 0 | 1,8 | 343 | 0 | 0 |
| 81 | Algarrobo Bajo INIA | 03-05-2026 20:00 | 14,6 | 61,3 | 0 | 1,9 | 335 | 0 | 0 |
| 80 | Algarrobo Bajo INIA | 03-05-2026 19:45 | 14,9 | 45,3 | 0 | 1,9 | 328 | 0 | 0 |
| 79 | Algarrobo Bajo INIA | 03-05-2026 19:30 | 15,8 | 37,4 | 0 | 0,5 | 302 | 0 | 0 |
| 78 | Algarrobo Bajo INIA | 03-05-2026 19:15 | 16,3 | 34,6 | 0 | 1,2 | 318 | 0 | 0 |
| 77 | Algarrobo Bajo INIA | 03-05-2026 19:00 | 16 | 38,3 | 0 | 1,2 | 339 | 0 | 0 |
| 76 | Algarrobo Bajo INIA | 03-05-2026 18:45 | 16,3 | 39,4 | 0 | 0,5 | 335 | 0 | 0 |
| 75 | Algarrobo Bajo INIA | 03-05-2026 18:30 | 16,1 | 40,7 | 0 | 0,9 | 264 | 1 | 0 |
| 74 | Algarrobo Bajo INIA | 03-05-2026 18:15 | 17,1 | 44,5 | 0 | 0,8 | 227 | 5 | 0 |
| 73 | Algarrobo Bajo INIA | 03-05-2026 18:00 | 18,9 | 39,1 | 0 | 0,7 | 280 | 16 | 0 |
| 72 | Algarrobo Bajo INIA | 03-05-2026 17:45 | 19,7 | 36,9 | 0 | 0,7 | 230 | 61 | 0 |
| 71 | Algarrobo Bajo INIA | 03-05-2026 17:30 | 21 | 36,2 | 0 | 1,8 | 232 | 111 | 0 |
| 70 | Algarrobo Bajo INIA | 03-05-2026 17:15 | 22,5 | 30,2 | 0 | 1,9 | 248 | 157 | 0 |
| 69 | Algarrobo Bajo INIA | 03-05-2026 17:00 | 23,1 | 26,4 | 0 | 1,5 | 265 | 200 | 0 |
| 68 | Algarrobo Bajo INIA | 03-05-2026 16:45 | 23,1 | 25,3 | 0 | 1,7 | 228 | 243 | 0 |
| 67 | Algarrobo Bajo INIA | 03-05-2026 16:30 | 23,2 | 26,2 | 0 | 2,2 | 222 | 286 | 0 |
| 66 | Algarrobo Bajo INIA | 03-05-2026 16:15 | 23,8 | 23,7 | 0 | 2,5 | 202 | 327 | 0 |
| 65 | Algarrobo Bajo INIA | 03-05-2026 16:00 | 24,8 | 23,9 | 0 | 2,1 | 231 | 365 | 0 |
| 64 | Algarrobo Bajo INIA | 03-05-2026 15:45 | 25,1 | 23,5 | 0 | 1,8 | 242 | 403 | 0 |
| 63 | Algarrobo Bajo INIA | 03-05-2026 15:30 | 24,8 | 24 | 0 | 1,7 | 228 | 438 | 0 |
| 62 | Algarrobo Bajo INIA | 03-05-2026 15:15 | 24,5 | 26,3 | 0 | 1,9 | 260 | 470 | 0 |
| 61 | Algarrobo Bajo INIA | 03-05-2026 15:00 | 23,2 | 34,2 | 0 | 2,7 | 315 | 498 | 0 |
| 60 | Algarrobo Bajo INIA | 03-05-2026 14:45 | 22,7 | 39,5 | 0 | 2,9 | 306 | 524 | 0 |
| 59 | Algarrobo Bajo INIA | 03-05-2026 14:30 | 22,6 | 42,1 | 0 | 3,1 | 310 | 548 | 0 |
| 58 | Algarrobo Bajo INIA | 03-05-2026 14:15 | 22,1 | 42,1 | 0 | 3 | 326 | 570 | 0 |
| 57 | Algarrobo Bajo INIA | 03-05-2026 14:00 | 21,4 | 43,6 | 0 | 2,7 | 322 | 585 | 0 |
| 56 | Algarrobo Bajo INIA | 03-05-2026 13:45 | 20,6 | 49,4 | 0 | 3,6 | 324 | 598 | 0 |
| 55 | Algarrobo Bajo INIA | 03-05-2026 13:30 | 20,3 | 49,2 | 0 | 3,2 | 316 | 606 | 0 |
| 54 | Algarrobo Bajo INIA | 03-05-2026 13:15 | 19,7 | 51,6 | 0 | 3,5 | 315 | 615 | 0 |
| 53 | Algarrobo Bajo INIA | 03-05-2026 13:00 | 19,9 | 53,9 | 0 | 3,6 | 316 | 620 | 0 |
| 52 | Algarrobo Bajo INIA | 03-05-2026 12:45 | 19,7 | 51,2 | 0 | 3,2 | 310 | 619 | 0 |
| 51 | Algarrobo Bajo INIA | 03-05-2026 12:30 | 19,8 | 55,2 | 0 | 3,4 | 320 | 613 | 0 |
| 50 | Algarrobo Bajo INIA | 03-05-2026 12:15 | 19,5 | 54,3 | 0 | 3,2 | 309 | 605 | 0 |
| 49 | Algarrobo Bajo INIA | 03-05-2026 12:00 | 19,2 | 56,3 | 0 | 3,3 | 313 | 593 | 0 |
| 48 | Algarrobo Bajo INIA | 03-05-2026 11:45 | 19,1 | 55,2 | 0 | 2,7 | 315 | 579 | 0 |
| 47 | Algarrobo Bajo INIA | 03-05-2026 11:30 | 18,7 | 56,4 | 0 | 2,3 | 322 | 562 | 0 |
| 46 | Algarrobo Bajo INIA | 03-05-2026 11:15 | 18,1 | 56 | 0 | 2,3 | 312 | 542 | 0 |
| 45 | Algarrobo Bajo INIA | 03-05-2026 11:00 | 17,2 | 58,6 | 0 | 2,6 | 324 | 518 | 0 |
| 44 | Algarrobo Bajo INIA | 03-05-2026 10:45 | 16,5 | 60,2 | 0 | 2,5 | 338 | 491 | 0 |
| 43 | Algarrobo Bajo INIA | 03-05-2026 10:30 | 16,4 | 61,3 | 0 | 2,6 | 338 | 460 | 0 |
| 42 | Algarrobo Bajo INIA | 03-05-2026 10:15 | 16,7 | 60 | 0 | 2,2 | 335 | 427 | 0 |
| 41 | Algarrobo Bajo INIA | 03-05-2026 10:00 | 14,9 | 59,6 | 0 | 0,7 | 39 | 391 | 0 |
| 40 | Algarrobo Bajo INIA | 03-05-2026 09:45 | 13 | 65,4 | 0 | 1,2 | 53 | 352 | 0 |
| 39 | Algarrobo Bajo INIA | 03-05-2026 09:30 | 11,8 | 68 | 0 | 0,9 | 56 | 311 | 0 |
| 38 | Algarrobo Bajo INIA | 03-05-2026 09:15 | 10,9 | 71,7 | 0 | 0,8 | 53 | 270 | 0 |
| 37 | Algarrobo Bajo INIA | 03-05-2026 09:00 | 9,2 | 78,1 | 0 | 0,2 | 198 | 227 | 0 |
| 36 | Algarrobo Bajo INIA | 03-05-2026 08:45 | 9 | 80,6 | 0 | 0,5 | 172 | 185 | 0 |
| 35 | Algarrobo Bajo INIA | 03-05-2026 08:30 | 8 | 86,1 | 0 | 0 | 0 | 144 | 0 |
| 34 | Algarrobo Bajo INIA | 03-05-2026 08:15 | 6,5 | 89,1 | 0 | 0,8 | 49 | 104 | 0 |
| 33 | Algarrobo Bajo INIA | 03-05-2026 08:00 | 5,1 | 91,6 | 0 | 1,2 | 43 | 60 | 0 |
| 32 | Algarrobo Bajo INIA | 03-05-2026 07:45 | 4,9 | 91,2 | 0 | 1 | 37 | 19 | 0 |
| 31 | Algarrobo Bajo INIA | 03-05-2026 07:30 | 4,8 | 92,7 | 0 | 0,2 | 280 | 5 | 0 |
| 30 | Algarrobo Bajo INIA | 03-05-2026 07:15 | 4,9 | 91,4 | 0 | 0 | 0 | 2 | 0 |
| 29 | Algarrobo Bajo INIA | 03-05-2026 07:00 | 5,4 | 91,7 | 0 | 0,2 | 274 | 0 | 0 |
| 28 | Algarrobo Bajo INIA | 03-05-2026 06:45 | 5,2 | 91,8 | 0 | 0,3 | 269 | 0 | 0 |
| 27 | Algarrobo Bajo INIA | 03-05-2026 06:30 | 4,8 | 91,7 | 0 | 0,3 | 39 | 0 | 0 |
| 26 | Algarrobo Bajo INIA | 03-05-2026 06:15 | 4,6 | 90,9 | 0 | 0,8 | 45 | 0 | 0 |
| 25 | Algarrobo Bajo INIA | 03-05-2026 06:00 | 5,3 | 90,2 | 0 | 0,3 | 50 | 0 | 0 |
| 24 | Algarrobo Bajo INIA | 03-05-2026 05:45 | 6 | 89,8 | 0 | 0,1 | 288 | 0 | 0 |
| 23 | Algarrobo Bajo INIA | 03-05-2026 05:30 | 5,6 | 90,9 | 0 | 0,3 | 259 | 0 | 0 |
| 22 | Algarrobo Bajo INIA | 03-05-2026 05:15 | 5 | 90,2 | 0 | 0 | 198 | 0 | 0 |
| 21 | Algarrobo Bajo INIA | 03-05-2026 05:00 | 5,1 | 89,4 | 0 | 0,2 | 77 | 0 | 0 |
| 20 | Algarrobo Bajo INIA | 03-05-2026 04:45 | 5,8 | 87,6 | 0 | 0,3 | 207 | 0 | 0 |
| 19 | Algarrobo Bajo INIA | 03-05-2026 04:30 | 7,4 | 85,4 | 0 | 0,3 | 26 | 0 | 0 |
| 18 | Algarrobo Bajo INIA | 03-05-2026 04:15 | 7,2 | 86,3 | 0 | 0,1 | 1 | 0 | 0 |
| 17 | Algarrobo Bajo INIA | 03-05-2026 04:00 | 7,1 | 86,8 | 0 | 0,8 | 45 | 0 | 0 |
| 16 | Algarrobo Bajo INIA | 03-05-2026 03:45 | 8,4 | 84,8 | 0 | 0,3 | 27 | 0 | 0 |
| 15 | Algarrobo Bajo INIA | 03-05-2026 03:30 | 8,2 | 86,4 | 0 | 0,1 | 356 | 0 | 0 |
| 14 | Algarrobo Bajo INIA | 03-05-2026 03:15 | 8 | 86,6 | 0 | 0,2 | 3 | 0 | 0 |
| 13 | Algarrobo Bajo INIA | 03-05-2026 03:00 | 7,3 | 87,6 | 0 | 0,5 | 23 | 0 | 0 |
| 12 | Algarrobo Bajo INIA | 03-05-2026 02:45 | 7,1 | 86 | 0 | 0,3 | 36 | 0 | 0 |
| 11 | Algarrobo Bajo INIA | 03-05-2026 02:30 | 7,8 | 85,3 | 0 | 0 | 0 | 0 | 0 |
| 10 | Algarrobo Bajo INIA | 03-05-2026 02:15 | 8 | 85,3 | 0 | 0 | 340 | 0 | 0 |
| 9 | Algarrobo Bajo INIA | 03-05-2026 02:00 | 8 | 84,9 | 0 | 0 | 256 | 0 | 0 |
| 8 | Algarrobo Bajo INIA | 03-05-2026 01:45 | 8 | 84,4 | 0 | 0,1 | 274 | 0 | 0 |
| 7 | Algarrobo Bajo INIA | 03-05-2026 01:30 | 8,4 | 84,2 | 0 | 0 | 298 | 0 | 0 |
| 6 | Algarrobo Bajo INIA | 03-05-2026 01:15 | 8,4 | 83,2 | 0 | 0,2 | 46 | 0 | 0 |
| 5 | Algarrobo Bajo INIA | 03-05-2026 01:00 | 8,3 | 82,3 | 0 | 0,1 | 338 | 0 | 0 |
| 4 | Algarrobo Bajo INIA | 03-05-2026 00:45 | 7,8 | 82,4 | 0 | 0,2 | 37 | 0 | 0 |
| 3 | Algarrobo Bajo INIA | 03-05-2026 00:30 | 9 | 78,9 | 0 | 0 | 0 | 0 | 0 |
| 2 | Algarrobo Bajo INIA | 03-05-2026 00:15 | 10 | 75,7 | 0 | 0,2 | 317 | 0 | 0 |
| 1 | Algarrobo Bajo INIA | 03-05-2026 00:00 | 10,1 | 77,7 | 0 | 0,4 | 32 | 0 | 0 |